sensor_id;sensor_type;location;lat;lon;timestamp;pressure;altitude;pressure_sealevel;temperature;humidity
9521;BME280;4798;41.574;23.734;2023-07-29T00:01:10;95172.66;;;21.94;55.55
9521;BME280;4798;41.574;23.734;2023-07-29T00:03:38;95173.66;;;22.17;55.63
9521;BME280;4798;41.574;23.734;2023-07-29T00:06:06;95187.59;;;22.19;54.42
9521;BME280;4798;41.574;23.734;2023-07-29T00:08:35;95193.34;;;22.18;55.75
9521;BME280;4798;41.574;23.734;2023-07-29T00:11:03;95182.69;;;21.93;56.35
9521;BME280;4798;41.574;23.734;2023-07-29T00:13:32;95191.66;;;21.97;57.01
9521;BME280;4798;41.574;23.734;2023-07-29T00:16:01;95192.53;;;22.01;56.73
9521;BME280;4798;41.574;23.734;2023-07-29T00:18:30;95188.81;;;22.22;56.39
9521;BME280;4798;41.574;23.734;2023-07-29T00:20:58;95192.81;;;22.12;56.03
9521;BME280;4798;41.574;23.734;2023-07-29T00:23:27;95187.84;;;22.14;56.91
9521;BME280;4798;41.574;23.734;2023-07-29T00:25:55;95192.69;;;21.93;57.49
9521;BME280;4798;41.574;23.734;2023-07-29T00:28:23;95190.59;;;22.02;57.65
9521;BME280;4798;41.574;23.734;2023-07-29T00:30:52;95188.28;;;22.00;57.39
9521;BME280;4798;41.574;23.734;2023-07-29T00:33:22;95183.00;;;21.92;57.78
9521;BME280;4798;41.574;23.734;2023-07-29T00:35:50;95175.06;;;21.71;57.57
9521;BME280;4798;41.574;23.734;2023-07-29T00:38:18;95186.63;;;21.44;59.08
9521;BME280;4798;41.574;23.734;2023-07-29T00:40:47;95183.38;;;21.38;58.98
9521;BME280;4798;41.574;23.734;2023-07-29T00:43:15;95173.97;;;21.32;59.46
9521;BME280;4798;41.574;23.734;2023-07-29T00:45:44;95178.13;;;21.30;60.24
9521;BME280;4798;41.574;23.734;2023-07-29T00:48:13;95175.31;;;21.26;60.32
9521;BME280;4798;41.574;23.734;2023-07-29T00:50:43;95172.25;;;21.28;60.40
9521;BME280;4798;41.574;23.734;2023-07-29T00:53:12;95181.56;;;21.30;59.75
9521;BME280;4798;41.574;23.734;2023-07-29T00:55:39;95183.97;;;21.20;60.53
9521;BME280;4798;41.574;23.734;2023-07-29T00:58:07;95185.09;;;21.19;60.27
9521;BME280;4798;41.574;23.734;2023-07-29T01:00:36;95188.56;;;21.19;60.25
9521;BME280;4798;41.574;23.734;2023-07-29T01:03:04;95183.06;;;21.04;60.37
9521;BME280;4798;41.574;23.734;2023-07-29T01:05:39;95194.88;;;20.87;59.28
9521;BME280;4798;41.574;23.734;2023-07-29T01:08:16;95195.53;;;20.72;61.28
9521;BME280;4798;41.574;23.734;2023-07-29T01:10:55;95190.69;;;20.77;61.01
9521;BME280;4798;41.574;23.734;2023-07-29T01:13:33;95191.97;;;20.23;60.16
9521;BME280;4798;41.574;23.734;2023-07-29T01:16:11;95189.16;;;19.99;62.74
9521;BME280;4798;41.574;23.734;2023-07-29T01:18:47;95190.53;;;20.50;61.19
9521;BME280;4798;41.574;23.734;2023-07-29T01:21:17;95193.38;;;20.77;61.19
9521;BME280;4798;41.574;23.734;2023-07-29T01:23:47;95180.25;;;20.76;60.73
9521;BME280;4798;41.574;23.734;2023-07-29T01:26:14;95185.53;;;20.84;59.68
9521;BME280;4798;41.574;23.734;2023-07-29T01:28:42;95182.50;;;20.98;60.30
9521;BME280;4798;41.574;23.734;2023-07-29T01:31:15;95188.09;;;20.93;60.27
9521;BME280;4798;41.574;23.734;2023-07-29T01:33:48;95182.41;;;20.95;60.29
9521;BME280;4798;41.574;23.734;2023-07-29T01:36:21;95187.09;;;20.98;59.72
9521;BME280;4798;41.574;23.734;2023-07-29T01:38:54;95182.94;;;20.88;60.04
9521;BME280;4798;41.574;23.734;2023-07-29T01:41:24;95191.25;;;20.83;60.08
9521;BME280;4798;41.574;23.734;2023-07-29T01:43:53;95180.47;;;20.71;60.82
9521;BME280;4798;41.574;23.734;2023-07-29T01:46:21;95186.53;;;20.68;60.56
9521;BME280;4798;41.574;23.734;2023-07-29T01:48:50;95190.09;;;20.60;60.77
9521;BME280;4798;41.574;23.734;2023-07-29T01:51:19;95195.94;;;20.50;61.02
9521;BME280;4798;41.574;23.734;2023-07-29T01:53:48;95187.78;;;20.70;60.70
9521;BME280;4798;41.574;23.734;2023-07-29T01:56:18;95195.53;;;20.72;60.33
9521;BME280;4798;41.574;23.734;2023-07-29T01:58:46;95195.44;;;20.23;60.01
9521;BME280;4798;41.574;23.734;2023-07-29T02:01:15;95182.50;;;19.84;62.12
9521;BME280;4798;41.574;23.734;2023-07-29T02:03:43;95194.88;;;19.97;62.32
9521;BME280;4798;41.574;23.734;2023-07-29T02:06:11;95187.03;;;20.25;62.07
9521;BME280;4798;41.574;23.734;2023-07-29T02:08:39;95185.72;;;20.43;61.84
9521;BME280;4798;41.574;23.734;2023-07-29T02:11:08;95187.88;;;20.62;61.29
9521;BME280;4798;41.574;23.734;2023-07-29T02:13:38;95182.25;;;20.43;60.88
9521;BME280;4798;41.574;23.734;2023-07-29T02:16:06;95190.09;;;20.48;61.17
9521;BME280;4798;41.574;23.734;2023-07-29T02:18:34;95190.69;;;20.53;61.13
9521;BME280;4798;41.574;23.734;2023-07-29T02:21:03;95196.84;;;20.54;61.57
9521;BME280;4798;41.574;23.734;2023-07-29T02:23:31;95199.28;;;20.35;60.98
9521;BME280;4798;41.574;23.734;2023-07-29T02:26:00;95194.69;;;20.35;61.27
9521;BME280;4798;41.574;23.734;2023-07-29T02:28:28;95192.13;;;20.51;61.35
9521;BME280;4798;41.574;23.734;2023-07-29T02:31:17;95112.84;;;20.03;61.48
9521;BME280;4798;41.574;23.734;2023-07-29T02:33:46;95197.06;;;20.49;61.04
9521;BME280;4798;41.574;23.734;2023-07-29T02:36:15;95201.75;;;20.52;60.89
9521;BME280;4798;41.574;23.734;2023-07-29T02:38:43;95200.19;;;20.39;61.40
9521;BME280;4798;41.574;23.734;2023-07-29T02:41:12;95150.19;;;20.17;61.18
9521;BME280;4798;41.574;23.734;2023-07-29T02:43:43;95187.75;;;20.46;60.56
9521;BME280;4798;41.574;23.734;2023-07-29T02:46:11;95193.81;;;20.67;60.92
9521;BME280;4798;41.574;23.734;2023-07-29T02:48:41;95193.72;;;20.64;60.28
9521;BME280;4798;41.574;23.734;2023-07-29T02:51:10;95193.69;;;20.52;60.30
9521;BME280;4798;41.574;23.734;2023-07-29T02:53:38;95195.03;;;20.46;60.94
9521;BME280;4798;41.574;23.734;2023-07-29T02:56:07;95192.47;;;20.16;61.59
9521;BME280;4798;41.574;23.734;2023-07-29T02:58:36;95194.75;;;20.26;61.81
9521;BME280;4798;41.574;23.734;2023-07-29T03:01:06;95193.53;;;20.24;61.52
9521;BME280;4798;41.574;23.734;2023-07-29T03:03:34;95192.44;;;20.04;62.31
9521;BME280;4798;41.574;23.734;2023-07-29T03:06:06;95187.81;;;20.25;61.23
9521;BME280;4798;41.574;23.734;2023-07-29T03:08:34;95140.59;;;19.83;62.00
9521;BME280;4798;41.574;23.734;2023-07-29T03:11:05;95195.56;;;20.39;60.83
9521;BME280;4798;41.574;23.734;2023-07-29T03:13:34;95206.00;;;20.29;61.08
9521;BME280;4798;41.574;23.734;2023-07-29T03:16:06;95208.44;;;20.66;59.94
9521;BME280;4798;41.574;23.734;2023-07-29T03:18:35;95213.41;;;19.78;63.51
9521;BME280;4798;41.574;23.734;2023-07-29T03:21:04;95212.19;;;19.55;64.93
9521;BME280;4798;41.574;23.734;2023-07-29T03:23:34;95217.34;;;19.39;67.22
9521;BME280;4798;41.574;23.734;2023-07-29T03:26:03;95215.25;;;19.45;67.61
9521;BME280;4798;41.574;23.734;2023-07-29T03:28:38;95219.47;;;18.96;70.18
9521;BME280;4798;41.574;23.734;2023-07-29T03:31:07;95232.50;;;19.15;70.94
9521;BME280;4798;41.574;23.734;2023-07-29T03:33:36;95221.94;;;19.39;70.20
9521;BME280;4798;41.574;23.734;2023-07-29T03:36:05;95241.53;;;19.31;71.49
9521;BME280;4798;41.574;23.734;2023-07-29T03:38:34;95229.28;;;19.71;69.77
9521;BME280;4798;41.574;23.734;2023-07-29T03:41:07;95227.75;;;19.82;69.24
9521;BME280;4798;41.574;23.734;2023-07-29T03:43:36;95227.16;;;19.77;68.86
9521;BME280;4798;41.574;23.734;2023-07-29T03:46:04;95230.53;;;20.06;68.50
9521;BME280;4798;41.574;23.734;2023-07-29T03:48:37;95228.06;;;20.01;67.59
9521;BME280;4798;41.574;23.734;2023-07-29T03:51:07;95229.41;;;19.95;68.21
9521;BME280;4798;41.574;23.734;2023-07-29T03:53:35;95231.31;;;19.74;69.74
9521;BME280;4798;41.574;23.734;2023-07-29T03:56:04;95237.47;;;19.75;70.29
9521;BME280;4798;41.574;23.734;2023-07-29T03:58:32;95235.13;;;19.73;70.49
9521;BME280;4798;41.574;23.734;2023-07-29T04:01:01;95242.41;;;19.73;70.85
9521;BME280;4798;41.574;23.734;2023-07-29T04:03:29;95236.03;;;19.77;69.44
9521;BME280;4798;41.574;23.734;2023-07-29T04:05:58;95233.34;;;19.77;69.89
9521;BME280;4798;41.574;23.734;2023-07-29T04:08:27;95215.25;;;19.66;70.40
9521;BME280;4798;41.574;23.734;2023-07-29T04:10:56;95239.91;;;19.88;68.30
9521;BME280;4798;41.574;23.734;2023-07-29T04:13:24;95243.50;;;19.72;69.75
9521;BME280;4798;41.574;23.734;2023-07-29T04:15:52;95248.22;;;19.95;71.30
9521;BME280;4798;41.574;23.734;2023-07-29T04:18:21;95244.69;;;20.03;70.79
9521;BME280;4798;41.574;23.734;2023-07-29T04:20:49;95236.44;;;20.20;70.51
9521;BME280;4798;41.574;23.734;2023-07-29T04:23:18;95246.84;;;20.10;68.44
9521;BME280;4798;41.574;23.734;2023-07-29T04:25:47;95246.53;;;19.91;70.96
9521;BME280;4798;41.574;23.734;2023-07-29T04:28:16;95247.84;;;19.64;71.10
9521;BME280;4798;41.574;23.734;2023-07-29T04:30:45;95248.53;;;19.94;72.70
9521;BME280;4798;41.574;23.734;2023-07-29T04:33:13;95251.81;;;19.99;70.01
9521;BME280;4798;41.574;23.734;2023-07-29T04:35:41;95247.28;;;20.33;70.12
9521;BME280;4798;41.574;23.734;2023-07-29T04:38:10;95254.78;;;20.72;68.27
9521;BME280;4798;41.574;23.734;2023-07-29T04:40:38;95258.44;;;20.55;68.83
9521;BME280;4798;41.574;23.734;2023-07-29T04:43:08;95255.91;;;20.26;68.57
9521;BME280;4798;41.574;23.734;2023-07-29T04:45:36;95257.59;;;20.31;68.68
9521;BME280;4798;41.574;23.734;2023-07-29T04:48:04;95247.19;;;20.41;68.55
9521;BME280;4798;41.574;23.734;2023-07-29T04:50:33;95241.75;;;20.29;69.29
9521;BME280;4798;41.574;23.734;2023-07-29T04:53:01;95249.75;;;20.17;69.21
9521;BME280;4798;41.574;23.734;2023-07-29T04:55:29;95257.63;;;20.22;69.26
9521;BME280;4798;41.574;23.734;2023-07-29T04:57:58;95258.66;;;19.76;69.12
9521;BME280;4798;41.574;23.734;2023-07-29T05:00:28;95256.56;;;20.02;70.02
9521;BME280;4798;41.574;23.734;2023-07-29T05:02:56;95258.69;;;20.30;70.23
9521;BME280;4798;41.574;23.734;2023-07-29T05:05:25;95252.75;;;20.69;68.17
9521;BME280;4798;41.574;23.734;2023-07-29T05:07:53;95256.25;;;20.69;68.00
9521;BME280;4798;41.574;23.734;2023-07-29T05:10:21;95252.53;;;20.74;67.23
9521;BME280;4798;41.574;23.734;2023-07-29T05:12:50;95261.06;;;21.00;65.77
9521;BME280;4798;41.574;23.734;2023-07-29T05:15:18;95260.91;;;21.17;64.84
9521;BME280;4798;41.574;23.734;2023-07-29T05:17:48;95264.81;;;21.08;64.71
9521;BME280;4798;41.574;23.734;2023-07-29T05:20:16;95274.16;;;21.22;64.38
9521;BME280;4798;41.574;23.734;2023-07-29T05:22:45;95273.09;;;21.03;63.22
9521;BME280;4798;41.574;23.734;2023-07-29T05:25:13;95276.81;;;20.41;64.57
9521;BME280;4798;41.574;23.734;2023-07-29T05:27:41;95275.09;;;20.69;63.88
9521;BME280;4798;41.574;23.734;2023-07-29T05:30:10;95270.69;;;21.10;64.38
9521;BME280;4798;41.574;23.734;2023-07-29T05:32:38;95272.06;;;20.83;62.31
9521;BME280;4798;41.574;23.734;2023-07-29T05:35:08;95269.50;;;20.86;62.68
9521;BME280;4798;41.574;23.734;2023-07-29T05:37:38;95277.41;;;21.40;60.95
9521;BME280;4798;41.574;23.734;2023-07-29T05:40:07;95287.84;;;21.53;60.26
9521;BME280;4798;41.574;23.734;2023-07-29T05:42:36;95279.28;;;21.88;60.97
9521;BME280;4798;41.574;23.734;2023-07-29T05:45:06;95278.72;;;22.22;59.48
9521;BME280;4798;41.574;23.734;2023-07-29T05:47:35;95278.81;;;22.53;59.02
9521;BME280;4798;41.574;23.734;2023-07-29T05:50:04;95278.56;;;22.58;58.52
9521;BME280;4798;41.574;23.734;2023-07-29T05:52:34;95283.41;;;22.81;57.05
9521;BME280;4798;41.574;23.734;2023-07-29T05:55:03;95275.47;;;22.44;57.16
9521;BME280;4798;41.574;23.734;2023-07-29T05:57:32;95269.44;;;22.63;55.89
9521;BME280;4798;41.574;23.734;2023-07-29T06:00:00;95273.66;;;22.92;55.72
9521;BME280;4798;41.574;23.734;2023-07-29T06:02:28;95267.28;;;23.00;56.76
9521;BME280;4798;41.574;23.734;2023-07-29T06:04:57;95268.06;;;23.00;53.49
9521;BME280;4798;41.574;23.734;2023-07-29T06:07:26;95272.16;;;23.10;55.51
9521;BME280;4798;41.574;23.734;2023-07-29T06:09:58;95266.72;;;23.72;53.65
9521;BME280;4798;41.574;23.734;2023-07-29T06:12:26;95272.78;;;24.04;54.17
9521;BME280;4798;41.574;23.734;2023-07-29T06:14:54;95262.97;;;24.34;51.73
9521;BME280;4798;41.574;23.734;2023-07-29T06:17:23;95261.97;;;24.61;50.82
9521;BME280;4798;41.574;23.734;2023-07-29T06:19:51;95253.41;;;25.01;51.18
9521;BME280;4798;41.574;23.734;2023-07-29T06:22:19;95254.63;;;25.30;49.84
9521;BME280;4798;41.574;23.734;2023-07-29T06:24:48;95254.72;;;25.11;48.53
9521;BME280;4798;41.574;23.734;2023-07-29T06:27:17;95251.72;;;24.93;47.85
9521;BME280;4798;41.574;23.734;2023-07-29T06:29:46;95263.56;;;24.85;48.95
9521;BME280;4798;41.574;23.734;2023-07-29T06:32:14;95252.25;;;25.02;49.54
9521;BME280;4798;41.574;23.734;2023-07-29T06:34:42;95245.47;;;25.38;49.72
9521;BME280;4798;41.574;23.734;2023-07-29T06:37:10;95243.25;;;25.70;49.28
9521;BME280;4798;41.574;23.734;2023-07-29T06:39:39;95232.59;;;26.14;47.39
9521;BME280;4798;41.574;23.734;2023-07-29T06:42:07;95237.50;;;26.05;47.68
9521;BME280;4798;41.574;23.734;2023-07-29T06:44:37;95230.06;;;25.98;47.53
9521;BME280;4798;41.574;23.734;2023-07-29T06:47:05;95191.13;;;25.57;47.20
9521;BME280;4798;41.574;23.734;2023-07-29T06:49:34;95230.00;;;26.24;47.31
9521;BME280;4798;41.574;23.734;2023-07-29T06:52:02;95230.69;;;26.88;48.81
9521;BME280;4798;41.574;23.734;2023-07-29T06:54:31;95232.59;;;26.84;47.45
9521;BME280;4798;41.574;23.734;2023-07-29T06:56:59;95215.13;;;26.85;45.74
9521;BME280;4798;41.574;23.734;2023-07-29T06:59:27;95224.69;;;27.12;45.77
9521;BME280;4798;41.574;23.734;2023-07-29T07:01:57;95223.59;;;26.76;45.67
9521;BME280;4798;41.574;23.734;2023-07-29T07:04:27;95217.28;;;26.69;45.85
9521;BME280;4798;41.574;23.734;2023-07-29T07:06:55;95221.09;;;26.61;46.34
9521;BME280;4798;41.574;23.734;2023-07-29T07:09:23;95212.94;;;26.61;45.20
9521;BME280;4798;41.574;23.734;2023-07-29T07:11:52;95163.69;;;27.17;44.37
9521;BME280;4798;41.574;23.734;2023-07-29T07:14:20;95212.91;;;27.45;44.53
9521;BME280;4798;41.574;23.734;2023-07-29T07:16:48;95216.31;;;28.00;44.07
9521;BME280;4798;41.574;23.734;2023-07-29T07:19:18;95200.63;;;28.76;41.88
9521;BME280;4798;41.574;23.734;2023-07-29T07:21:47;95211.22;;;27.88;43.03
9521;BME280;4798;41.574;23.734;2023-07-29T07:24:15;95204.34;;;28.18;43.58
9521;BME280;4798;41.574;23.734;2023-07-29T07:26:43;95199.44;;;28.63;42.58
9521;BME280;4798;41.574;23.734;2023-07-29T07:29:11;95195.59;;;29.20;42.54
9521;BME280;4798;41.574;23.734;2023-07-29T07:31:40;95200.22;;;29.66;40.99
9521;BME280;4798;41.574;23.734;2023-07-29T07:34:08;95196.75;;;29.02;41.11
9521;BME280;4798;41.574;23.734;2023-07-29T07:36:38;95188.53;;;29.58;41.40
9521;BME280;4798;41.574;23.734;2023-07-29T07:39:11;95191.16;;;30.04;41.07
9521;BME280;4798;41.574;23.734;2023-07-29T07:41:39;95181.72;;;30.23;39.36
9521;BME280;4798;41.574;23.734;2023-07-29T07:44:08;95178.75;;;30.68;39.06
9521;BME280;4798;41.574;23.734;2023-07-29T07:46:37;95169.69;;;30.02;39.51
9521;BME280;4798;41.574;23.734;2023-07-29T07:49:07;95170.16;;;29.69;38.80
9521;BME280;4798;41.574;23.734;2023-07-29T07:51:35;95163.91;;;29.65;39.90
9521;BME280;4798;41.574;23.734;2023-07-29T07:54:05;95163.66;;;30.43;38.09
9521;BME280;4798;41.574;23.734;2023-07-29T07:56:33;95174.00;;;30.76;38.28
9521;BME280;4798;41.574;23.734;2023-07-29T07:59:02;95170.53;;;30.68;37.46
9521;BME280;4798;41.574;23.734;2023-07-29T08:01:34;95170.75;;;30.95;37.81
9521;BME280;4798;41.574;23.734;2023-07-29T08:04:03;95160.13;;;31.04;38.57
9521;BME280;4798;41.574;23.734;2023-07-29T08:06:32;95156.72;;;30.86;36.31
9521;BME280;4798;41.574;23.734;2023-07-29T08:09:01;95148.34;;;31.07;36.72
9521;BME280;4798;41.574;23.734;2023-07-29T08:11:31;95148.81;;;31.80;36.38
9521;BME280;4798;41.574;23.734;2023-07-29T08:14:00;95138.63;;;32.15;35.59
9521;BME280;4798;41.574;23.734;2023-07-29T08:16:28;95139.44;;;31.78;37.23
9521;BME280;4798;41.574;23.734;2023-07-29T08:18:56;95142.59;;;31.39;36.87
9521;BME280;4798;41.574;23.734;2023-07-29T08:21:26;95139.41;;;31.44;37.29
9521;BME280;4798;41.574;23.734;2023-07-29T08:23:54;95135.13;;;32.14;36.12
9521;BME280;4798;41.574;23.734;2023-07-29T08:26:23;95135.47;;;32.73;35.55
9521;BME280;4798;41.574;23.734;2023-07-29T08:28:52;95140.09;;;33.03;35.65
9521;BME280;4798;41.574;23.734;2023-07-29T08:31:21;95129.38;;;32.62;35.82
9521;BME280;4798;41.574;23.734;2023-07-29T08:33:49;95135.38;;;32.23;36.28
9521;BME280;4798;41.574;23.734;2023-07-29T08:36:18;95121.13;;;33.12;36.91
9521;BME280;4798;41.574;23.734;2023-07-29T08:38:46;95121.75;;;33.43;35.77
9521;BME280;4798;41.574;23.734;2023-07-29T08:41:19;95120.66;;;32.40;35.22
9521;BME280;4798;41.574;23.734;2023-07-29T08:43:52;95114.84;;;32.88;35.00
9521;BME280;4798;41.574;23.734;2023-07-29T08:46:22;95113.22;;;33.37;35.16
9521;BME280;4798;41.574;23.734;2023-07-29T08:48:51;95114.16;;;34.13;33.87
9521;BME280;4798;41.574;23.734;2023-07-29T08:51:19;95095.63;;;34.33;34.84
9521;BME280;4798;41.574;23.734;2023-07-29T08:53:49;95107.56;;;34.78;35.31
9521;BME280;4798;41.574;23.734;2023-07-29T08:56:18;95093.97;;;34.55;33.43
9521;BME280;4798;41.574;23.734;2023-07-29T08:58:46;95093.28;;;34.15;34.73
9521;BME280;4798;41.574;23.734;2023-07-29T09:01:15;95086.75;;;34.77;34.81
9521;BME280;4798;41.574;23.734;2023-07-29T09:03:45;95088.19;;;34.82;33.95
9521;BME280;4798;41.574;23.734;2023-07-29T09:06:14;95083.47;;;34.66;33.94
9521;BME280;4798;41.574;23.734;2023-07-29T09:08:43;95075.91;;;33.99;32.34
9521;BME280;4798;41.574;23.734;2023-07-29T09:11:13;95076.50;;;33.70;32.64
9521;BME280;4798;41.574;23.734;2023-07-29T09:13:43;95059.84;;;34.33;32.15
9521;BME280;4798;41.574;23.734;2023-07-29T09:16:12;95060.31;;;34.80;33.13
9521;BME280;4798;41.574;23.734;2023-07-29T09:18:40;95059.09;;;35.29;34.36
9521;BME280;4798;41.574;23.734;2023-07-29T09:21:11;95048.63;;;35.08;30.86
9521;BME280;4798;41.574;23.734;2023-07-29T09:23:40;95060.84;;;35.93;30.72
9521;BME280;4798;41.574;23.734;2023-07-29T09:26:08;95002.41;;;35.57;32.51
9521;BME280;4798;41.574;23.734;2023-07-29T09:28:38;95049.50;;;35.62;29.85
9521;BME280;4798;41.574;23.734;2023-07-29T09:31:06;94989.75;;;34.86;30.77
9521;BME280;4798;41.574;23.734;2023-07-29T09:33:35;95048.81;;;35.87;30.38
9521;BME280;4798;41.574;23.734;2023-07-29T09:36:10;95045.09;;;36.06;32.77
9521;BME280;4798;41.574;23.734;2023-07-29T09:38:39;95051.34;;;35.53;31.04
9521;BME280;4798;41.574;23.734;2023-07-29T09:41:07;95042.03;;;35.02;31.10
9521;BME280;4798;41.574;23.734;2023-07-29T09:43:35;95038.97;;;35.74;29.45
9521;BME280;4798;41.574;23.734;2023-07-29T09:46:05;95034.75;;;36.61;29.89
9521;BME280;4798;41.574;23.734;2023-07-29T09:48:35;95033.84;;;36.13;29.01
9521;BME280;4798;41.574;23.734;2023-07-29T09:51:11;95026.06;;;35.96;29.83
9521;BME280;4798;41.574;23.734;2023-07-29T09:53:42;95027.34;;;35.66;28.93
9521;BME280;4798;41.574;23.734;2023-07-29T09:56:14;95016.75;;;36.18;29.82
9521;BME280;4798;41.574;23.734;2023-07-29T09:58:42;95009.34;;;36.66;29.89
9521;BME280;4798;41.574;23.734;2023-07-29T10:01:13;95011.34;;;36.27;28.80
9521;BME280;4798;41.574;23.734;2023-07-29T10:03:42;94945.66;;;35.97;28.96
9521;BME280;4798;41.574;23.734;2023-07-29T10:06:14;94997.63;;;36.62;30.03
9521;BME280;4798;41.574;23.734;2023-07-29T10:08:43;94994.25;;;37.26;28.11
9521;BME280;4798;41.574;23.734;2023-07-29T10:11:11;94988.41;;;37.68;27.74
9521;BME280;4798;41.574;23.734;2023-07-29T10:13:40;94994.72;;;37.46;27.25
9521;BME280;4798;41.574;23.734;2023-07-29T10:16:19;94980.59;;;37.75;28.20
9521;BME280;4798;41.574;23.734;2023-07-29T10:18:48;94991.81;;;37.72;27.15
9521;BME280;4798;41.574;23.734;2023-07-29T10:21:18;94983.13;;;38.13;27.04
9521;BME280;4798;41.574;23.734;2023-07-29T10:23:49;94984.47;;;38.08;28.58
9521;BME280;4798;41.574;23.734;2023-07-29T10:26:22;94968.34;;;38.07;28.15
9521;BME280;4798;41.574;23.734;2023-07-29T10:28:52;94973.63;;;38.23;27.04
9521;BME280;4798;41.574;23.734;2023-07-29T10:31:22;94978.53;;;38.59;27.10
9521;BME280;4798;41.574;23.734;2023-07-29T10:33:51;94973.41;;;38.08;25.99
9521;BME280;4798;41.574;23.734;2023-07-29T10:36:21;94974.22;;;37.57;25.80
9521;BME280;4798;41.574;23.734;2023-07-29T10:38:49;94963.69;;;38.35;25.09
9521;BME280;4798;41.574;23.734;2023-07-29T10:41:18;94958.53;;;38.15;26.50
9521;BME280;4798;41.574;23.734;2023-07-29T10:43:46;94956.28;;;38.90;25.54
9521;BME280;4798;41.574;23.734;2023-07-29T10:46:16;94955.81;;;39.00;25.90
9521;BME280;4798;41.574;23.734;2023-07-29T10:48:53;94945.66;;;39.15;25.85
9521;BME280;4798;41.574;23.734;2023-07-29T10:51:24;94954.75;;;39.25;24.83
9521;BME280;4798;41.574;23.734;2023-07-29T10:53:54;94943.59;;;38.61;26.36
9521;BME280;4798;41.574;23.734;2023-07-29T10:56:28;94939.16;;;38.73;25.59
9521;BME280;4798;41.574;23.734;2023-07-29T10:58:58;94936.19;;;37.48;26.11
9521;BME280;4798;41.574;23.734;2023-07-29T11:01:28;94936.06;;;38.13;25.48
9521;BME280;4798;41.574;23.734;2023-07-29T11:04:24;94926.44;;;37.87;28.55
9521;BME280;4798;41.574;23.734;2023-07-29T11:07:24;94928.09;;;37.10;26.18
9521;BME280;4798;41.574;23.734;2023-07-29T11:10:00;94902.84;;;38.13;26.42
9521;BME280;4798;41.574;23.734;2023-07-29T11:12:39;94918.00;;;38.39;24.61
9521;BME280;4798;41.574;23.734;2023-07-29T11:15:17;94917.16;;;39.15;24.99
9521;BME280;4798;41.574;23.734;2023-07-29T11:17:47;94919.03;;;39.09;25.20
9521;BME280;4798;41.574;23.734;2023-07-29T11:20:16;94917.44;;;38.04;24.76
9521;BME280;4798;41.574;23.734;2023-07-29T11:22:46;94913.13;;;38.03;25.18
9521;BME280;4798;41.574;23.734;2023-07-29T11:25:16;94916.00;;;37.38;26.46
9521;BME280;4798;41.574;23.734;2023-07-29T11:27:45;94907.94;;;37.84;27.65
9521;BME280;4798;41.574;23.734;2023-07-29T11:30:14;94907.41;;;38.47;26.94
9521;BME280;4798;41.574;23.734;2023-07-29T11:32:44;94895.31;;;38.90;25.58
9521;BME280;4798;41.574;23.734;2023-07-29T11:35:13;94845.59;;;37.92;25.40
9521;BME280;4798;41.574;23.734;2023-07-29T11:37:44;94899.78;;;38.11;25.39
9521;BME280;4798;41.574;23.734;2023-07-29T11:40:15;94896.84;;;39.18;24.72
9521;BME280;4798;41.574;23.734;2023-07-29T11:42:44;94894.53;;;38.89;23.50
9521;BME280;4798;41.574;23.734;2023-07-29T11:45:14;94882.81;;;39.81;23.28
9521;BME280;4798;41.574;23.734;2023-07-29T11:47:44;94868.78;;;40.18;23.35
9521;BME280;4798;41.574;23.734;2023-07-29T11:50:15;94874.41;;;40.56;22.83
9521;BME280;4798;41.574;23.734;2023-07-29T11:52:45;94874.81;;;40.40;25.08
9521;BME280;4798;41.574;23.734;2023-07-29T11:55:15;94881.22;;;40.55;24.75
9521;BME280;4798;41.574;23.734;2023-07-29T11:57:49;94889.44;;;39.84;25.46
9521;BME280;4798;41.574;23.734;2023-07-29T12:00:20;94873.19;;;39.59;25.74
9521;BME280;4798;41.574;23.734;2023-07-29T12:02:49;94880.34;;;40.16;25.04
9521;BME280;4798;41.574;23.734;2023-07-29T12:05:20;94871.09;;;39.86;25.25
9521;BME280;4798;41.574;23.734;2023-07-29T12:07:49;94861.13;;;40.13;24.90
9521;BME280;4798;41.574;23.734;2023-07-29T12:10:20;94862.53;;;39.66;25.12
9521;BME280;4798;41.574;23.734;2023-07-29T12:12:49;94858.25;;;39.47;26.01
9521;BME280;4798;41.574;23.734;2023-07-29T12:15:24;94852.81;;;40.04;25.08
9521;BME280;4798;41.574;23.734;2023-07-29T12:17:54;94857.63;;;39.52;26.63
9521;BME280;4798;41.574;23.734;2023-07-29T12:20:25;94851.72;;;39.17;25.34
9521;BME280;4798;41.574;23.734;2023-07-29T12:22:54;94850.63;;;38.42;25.87
9521;BME280;4798;41.574;23.734;2023-07-29T12:25:26;94849.69;;;39.36;25.59
9521;BME280;4798;41.574;23.734;2023-07-29T12:27:55;94856.66;;;38.77;25.72
9521;BME280;4798;41.574;23.734;2023-07-29T12:30:24;94850.63;;;39.06;25.50
9521;BME280;4798;41.574;23.734;2023-07-29T12:32:53;94845.38;;;39.26;25.72
9521;BME280;4798;41.574;23.734;2023-07-29T12:35:21;94853.41;;;38.69;25.60
9521;BME280;4798;41.574;23.734;2023-07-29T12:37:58;94840.47;;;38.66;25.97
9521;BME280;4798;41.574;23.734;2023-07-29T12:40:28;94840.31;;;38.97;27.17
9521;BME280;4798;41.574;23.734;2023-07-29T12:42:56;94831.84;;;39.19;25.77
9521;BME280;4798;41.574;23.734;2023-07-29T12:45:25;94833.88;;;38.64;25.96
9521;BME280;4798;41.574;23.734;2023-07-29T12:47:56;94831.09;;;38.73;27.07
9521;BME280;4798;41.574;23.734;2023-07-29T12:50:24;94840.94;;;38.65;25.61
9521;BME280;4798;41.574;23.734;2023-07-29T12:52:53;94829.72;;;38.32;26.40
9521;BME280;4798;41.574;23.734;2023-07-29T12:55:22;94830.25;;;38.00;26.75
9521;BME280;4798;41.574;23.734;2023-07-29T12:57:52;94826.63;;;37.72;27.74
9521;BME280;4798;41.574;23.734;2023-07-29T13:00:20;94818.09;;;36.96;27.43
9521;BME280;4798;41.574;23.734;2023-07-29T13:02:49;94825.56;;;36.74;27.79
9521;BME280;4798;41.574;23.734;2023-07-29T13:05:17;94826.25;;;37.30;27.11
9521;BME280;4798;41.574;23.734;2023-07-29T13:07:46;94828.50;;;37.84;27.00
9521;BME280;4798;41.574;23.734;2023-07-29T13:10:14;94830.63;;;38.38;26.18
9521;BME280;4798;41.574;23.734;2023-07-29T13:12:42;94825.94;;;37.99;26.20
9521;BME280;4798;41.574;23.734;2023-07-29T13:15:12;94825.78;;;37.53;26.69
9521;BME280;4798;41.574;23.734;2023-07-29T13:17:41;94826.53;;;37.85;26.08
9521;BME280;4798;41.574;23.734;2023-07-29T13:20:10;94825.38;;;38.22;25.81
9521;BME280;4798;41.574;23.734;2023-07-29T13:22:38;94823.22;;;38.26;25.84